sensor_id;sensor_type;location;lat;lon;timestamp;P1;durP1;ratioP1;P2;durP2;ratioP2
10410;SDS011;5251;52.112;8.606;2023-07-22T00:00:14;9.40;;;6.50;;
10410;SDS011;5251;52.112;8.606;2023-07-22T00:02:43;12.38;;;7.63;;
10410;SDS011;5251;52.112;8.606;2023-07-22T00:05:09;15.02;;;7.60;;
10410;SDS011;5251;52.112;8.606;2023-07-22T00:07:37;18.33;;;7.60;;
10410;SDS011;5251;52.112;8.606;2023-07-22T00:10:05;13.65;;;8.02;;
10410;SDS011;5251;52.112;8.606;2023-07-22T00:12:33;14.95;;;7.00;;
10410;SDS011;5251;52.112;8.606;2023-07-22T00:14:59;13.10;;;7.15;;
10410;SDS011;5251;52.112;8.606;2023-07-22T00:17:25;13.38;;;7.53;;
10410;SDS011;5251;52.112;8.606;2023-07-22T00:19:50;14.48;;;7.68;;
10410;SDS011;5251;52.112;8.606;2023-07-22T00:22:16;11.93;;;7.47;;
10410;SDS011;5251;52.112;8.606;2023-07-22T00:24:42;12.25;;;7.22;;
10410;SDS011;5251;52.112;8.606;2023-07-22T00:27:07;16.65;;;7.80;;
10410;SDS011;5251;52.112;8.606;2023-07-22T00:29:33;17.08;;;8.00;;
10410;SDS011;5251;52.112;8.606;2023-07-22T00:31:59;12.20;;;7.60;;
10410;SDS011;5251;52.112;8.606;2023-07-22T00:34:25;15.70;;;7.32;;
10410;SDS011;5251;52.112;8.606;2023-07-22T00:36:51;16.67;;;7.85;;
10410;SDS011;5251;52.112;8.606;2023-07-22T00:39:17;12.35;;;7.82;;
10410;SDS011;5251;52.112;8.606;2023-07-22T00:41:43;16.60;;;8.55;;
10410;SDS011;5251;52.112;8.606;2023-07-22T00:44:10;18.10;;;8.05;;
10410;SDS011;5251;52.112;8.606;2023-07-22T00:46:37;13.52;;;7.70;;
10410;SDS011;5251;52.112;8.606;2023-07-22T00:49:04;14.10;;;7.88;;
10410;SDS011;5251;52.112;8.606;2023-07-22T00:51:31;11.27;;;7.35;;
10410;SDS011;5251;52.112;8.606;2023-07-22T00:53:57;14.02;;;7.57;;
10410;SDS011;5251;52.112;8.606;2023-07-22T00:56:23;18.60;;;7.90;;
10410;SDS011;5251;52.112;8.606;2023-07-22T00:58:49;13.77;;;7.35;;
10410;SDS011;5251;52.112;8.606;2023-07-22T01:01:15;14.48;;;7.65;;
10410;SDS011;5251;52.112;8.606;2023-07-22T01:03:41;16.55;;;8.73;;
10410;SDS011;5251;52.112;8.606;2023-07-22T01:06:07;12.73;;;7.65;;
10410;SDS011;5251;52.112;8.606;2023-07-22T01:08:34;12.38;;;8.25;;
10410;SDS011;5251;52.112;8.606;2023-07-22T01:10:59;15.80;;;8.35;;
10410;SDS011;5251;52.112;8.606;2023-07-22T01:13:25;13.18;;;8.13;;
10410;SDS011;5251;52.112;8.606;2023-07-22T01:15:51;13.60;;;8.65;;
10410;SDS011;5251;52.112;8.606;2023-07-22T01:18:17;13.73;;;8.43;;
10410;SDS011;5251;52.112;8.606;2023-07-22T01:20:42;11.80;;;7.30;;
10410;SDS011;5251;52.112;8.606;2023-07-22T01:23:09;12.27;;;7.75;;
10410;SDS011;5251;52.112;8.606;2023-07-22T01:25:34;14.63;;;8.23;;
10410;SDS011;5251;52.112;8.606;2023-07-22T01:28:00;13.23;;;8.20;;
10410;SDS011;5251;52.112;8.606;2023-07-22T01:30:25;14.13;;;8.13;;
10410;SDS011;5251;52.112;8.606;2023-07-22T01:32:52;14.95;;;8.48;;
10410;SDS011;5251;52.112;8.606;2023-07-22T01:35:18;12.20;;;8.13;;
10410;SDS011;5251;52.112;8.606;2023-07-22T01:37:44;12.77;;;8.13;;
10410;SDS011;5251;52.112;8.606;2023-07-22T01:40:10;13.95;;;7.97;;
10410;SDS011;5251;52.112;8.606;2023-07-22T01:42:40;14.77;;;8.88;;
10410;SDS011;5251;52.112;8.606;2023-07-22T01:45:07;11.63;;;8.13;;
10410;SDS011;5251;52.112;8.606;2023-07-22T01:47:34;12.57;;;8.15;;
10410;SDS011;5251;52.112;8.606;2023-07-22T01:50:01;13.45;;;8.32;;
10410;SDS011;5251;52.112;8.606;2023-07-22T01:52:27;16.00;;;8.20;;
10410;SDS011;5251;52.112;8.606;2023-07-22T01:54:53;13.18;;;7.82;;
10410;SDS011;5251;52.112;8.606;2023-07-22T01:57:18;13.25;;;7.85;;
10410;SDS011;5251;52.112;8.606;2023-07-22T01:59:44;17.52;;;7.88;;
10410;SDS011;5251;52.112;8.606;2023-07-22T02:02:09;13.10;;;7.32;;
10410;SDS011;5251;52.112;8.606;2023-07-22T02:04:35;12.95;;;7.90;;
10410;SDS011;5251;52.112;8.606;2023-07-22T02:07:00;14.68;;;7.80;;
10410;SDS011;5251;52.112;8.606;2023-07-22T02:09:26;15.75;;;7.80;;
10410;SDS011;5251;52.112;8.606;2023-07-22T02:11:52;13.38;;;8.23;;
10410;SDS011;5251;52.112;8.606;2023-07-22T02:14:18;14.50;;;7.95;;
10410;SDS011;5251;52.112;8.606;2023-07-22T02:16:44;8.70;;;6.72;;
10410;SDS011;5251;52.112;8.606;2023-07-22T02:19:10;13.02;;;7.22;;
10410;SDS011;5251;52.112;8.606;2023-07-22T02:21:35;13.43;;;7.40;;
10410;SDS011;5251;52.112;8.606;2023-07-22T02:24:01;16.20;;;7.28;;
10410;SDS011;5251;52.112;8.606;2023-07-22T02:26:27;12.32;;;7.07;;
10410;SDS011;5251;52.112;8.606;2023-07-22T02:28:52;11.45;;;6.90;;
10410;SDS011;5251;52.112;8.606;2023-07-22T02:31:19;16.00;;;8.25;;
10410;SDS011;5251;52.112;8.606;2023-07-22T02:33:47;14.25;;;7.00;;
10410;SDS011;5251;52.112;8.606;2023-07-22T02:36:12;13.25;;;7.07;;
10410;SDS011;5251;52.112;8.606;2023-07-22T02:38:38;14.43;;;6.88;;
10410;SDS011;5251;52.112;8.606;2023-07-22T02:41:04;9.32;;;6.70;;
10410;SDS011;5251;52.112;8.606;2023-07-22T02:43:32;12.93;;;6.93;;
10410;SDS011;5251;52.112;8.606;2023-07-22T02:46:00;13.50;;;7.25;;
10410;SDS011;5251;52.112;8.606;2023-07-22T02:48:28;15.30;;;8.00;;
10410;SDS011;5251;52.112;8.606;2023-07-22T02:50:54;11.35;;;8.02;;
10410;SDS011;5251;52.112;8.606;2023-07-22T02:53:20;12.05;;;7.47;;
10410;SDS011;5251;52.112;8.606;2023-07-22T02:55:46;11.90;;;7.47;;
10410;SDS011;5251;52.112;8.606;2023-07-22T02:58:11;9.45;;;7.43;;
10410;SDS011;5251;52.112;8.606;2023-07-22T03:00:37;13.95;;;8.00;;
10410;SDS011;5251;52.112;8.606;2023-07-22T03:03:03;11.73;;;7.57;;
10410;SDS011;5251;52.112;8.606;2023-07-22T03:05:30;10.85;;;7.70;;
10410;SDS011;5251;52.112;8.606;2023-07-22T03:07:57;12.85;;;7.60;;
10410;SDS011;5251;52.112;8.606;2023-07-22T03:10:23;12.80;;;7.57;;
10410;SDS011;5251;52.112;8.606;2023-07-22T03:12:54;11.77;;;7.18;;
10410;SDS011;5251;52.112;8.606;2023-07-22T03:15:21;14.13;;;7.95;;
10410;SDS011;5251;52.112;8.606;2023-07-22T03:17:47;12.80;;;7.85;;
10410;SDS011;5251;52.112;8.606;2023-07-22T03:20:13;11.98;;;7.20;;
10410;SDS011;5251;52.112;8.606;2023-07-22T03:22:39;12.57;;;7.40;;
10410;SDS011;5251;52.112;8.606;2023-07-22T03:25:08;12.15;;;7.93;;
10410;SDS011;5251;52.112;8.606;2023-07-22T03:27:38;11.35;;;7.50;;
10410;SDS011;5251;52.112;8.606;2023-07-22T03:30:04;14.40;;;7.15;;
10410;SDS011;5251;52.112;8.606;2023-07-22T03:32:35;14.25;;;7.13;;
10410;SDS011;5251;52.112;8.606;2023-07-22T03:35:01;8.38;;;6.30;;
10410;SDS011;5251;52.112;8.606;2023-07-22T03:37:28;12.50;;;6.85;;
10410;SDS011;5251;52.112;8.606;2023-07-22T03:39:54;13.65;;;6.40;;
10410;SDS011;5251;52.112;8.606;2023-07-22T03:42:19;11.68;;;7.10;;
10410;SDS011;5251;52.112;8.606;2023-07-22T03:44:45;15.57;;;7.57;;
10410;SDS011;5251;52.112;8.606;2023-07-22T03:47:10;11.15;;;7.20;;
10410;SDS011;5251;52.112;8.606;2023-07-22T03:49:36;10.32;;;7.35;;
10410;SDS011;5251;52.112;8.606;2023-07-22T03:52:02;10.27;;;7.07;;
10410;SDS011;5251;52.112;8.606;2023-07-22T03:54:27;9.90;;;7.10;;
10410;SDS011;5251;52.112;8.606;2023-07-22T03:56:53;13.15;;;7.22;;
10410;SDS011;5251;52.112;8.606;2023-07-22T03:59:18;12.75;;;7.43;;
10410;SDS011;5251;52.112;8.606;2023-07-22T04:01:45;13.23;;;7.57;;
10410;SDS011;5251;52.112;8.606;2023-07-22T04:04:11;13.88;;;7.07;;
10410;SDS011;5251;52.112;8.606;2023-07-22T04:06:37;14.15;;;7.35;;
10410;SDS011;5251;52.112;8.606;2023-07-22T04:09:03;9.20;;;6.50;;
10410;SDS011;5251;52.112;8.606;2023-07-22T04:11:28;14.30;;;7.20;;
10410;SDS011;5251;52.112;8.606;2023-07-22T04:13:54;10.57;;;7.25;;
10410;SDS011;5251;52.112;8.606;2023-07-22T04:16:19;11.93;;;6.78;;
10410;SDS011;5251;52.112;8.606;2023-07-22T04:18:45;12.13;;;6.72;;
10410;SDS011;5251;52.112;8.606;2023-07-22T04:21:11;14.57;;;6.82;;
10410;SDS011;5251;52.112;8.606;2023-07-22T04:23:36;9.45;;;6.57;;
10410;SDS011;5251;52.112;8.606;2023-07-22T04:26:02;13.82;;;7.15;;
10410;SDS011;5251;52.112;8.606;2023-07-22T04:28:32;8.30;;;6.18;;
10410;SDS011;5251;52.112;8.606;2023-07-22T04:31:01;9.13;;;6.53;;
10410;SDS011;5251;52.112;8.606;2023-07-22T04:33:26;9.70;;;6.60;;
10410;SDS011;5251;52.112;8.606;2023-07-22T04:35:58;10.85;;;6.72;;
10410;SDS011;5251;52.112;8.606;2023-07-22T04:38:24;10.82;;;6.57;;
10410;SDS011;5251;52.112;8.606;2023-07-22T04:40:50;17.80;;;6.85;;
10410;SDS011;5251;52.112;8.606;2023-07-22T04:43:15;14.57;;;6.80;;
10410;SDS011;5251;52.112;8.606;2023-07-22T04:45:43;12.65;;;7.45;;
10410;SDS011;5251;52.112;8.606;2023-07-22T04:48:10;15.90;;;8.68;;
10410;SDS011;5251;52.112;8.606;2023-07-22T04:50:36;11.80;;;7.72;;
10410;SDS011;5251;52.112;8.606;2023-07-22T04:53:05;12.88;;;7.70;;
10410;SDS011;5251;52.112;8.606;2023-07-22T04:55:31;13.65;;;7.55;;
10410;SDS011;5251;52.112;8.606;2023-07-22T04:57:57;14.35;;;7.50;;
10410;SDS011;5251;52.112;8.606;2023-07-22T05:00:23;15.90;;;8.45;;
10410;SDS011;5251;52.112;8.606;2023-07-22T05:02:49;12.07;;;8.50;;
10410;SDS011;5251;52.112;8.606;2023-07-22T05:05:15;16.60;;;8.60;;
10410;SDS011;5251;52.112;8.606;2023-07-22T05:07:41;17.23;;;8.88;;
10410;SDS011;5251;52.112;8.606;2023-07-22T05:10:07;13.25;;;8.68;;
10410;SDS011;5251;52.112;8.606;2023-07-22T05:12:37;15.25;;;8.82;;
10410;SDS011;5251;52.112;8.606;2023-07-22T05:15:03;13.85;;;9.35;;
10410;SDS011;5251;52.112;8.606;2023-07-22T05:17:29;15.07;;;9.65;;
10410;SDS011;5251;52.112;8.606;2023-07-22T05:19:56;17.23;;;9.38;;
10410;SDS011;5251;52.112;8.606;2023-07-22T05:22:22;14.88;;;9.02;;
10410;SDS011;5251;52.112;8.606;2023-07-22T05:24:47;15.88;;;9.65;;
10410;SDS011;5251;52.112;8.606;2023-07-22T05:27:13;19.65;;;10.77;;
10410;SDS011;5251;52.112;8.606;2023-07-22T05:29:39;14.27;;;9.20;;
10410;SDS011;5251;52.112;8.606;2023-07-22T05:32:05;16.90;;;9.25;;
10410;SDS011;5251;52.112;8.606;2023-07-22T05:34:31;12.90;;;9.38;;
10410;SDS011;5251;52.112;8.606;2023-07-22T05:36:57;14.10;;;9.18;;
10410;SDS011;5251;52.112;8.606;2023-07-22T05:39:22;15.35;;;9.60;;
10410;SDS011;5251;52.112;8.606;2023-07-22T05:41:48;19.17;;;9.77;;
10410;SDS011;5251;52.112;8.606;2023-07-22T05:44:14;15.20;;;9.90;;
10410;SDS011;5251;52.112;8.606;2023-07-22T05:46:39;14.95;;;9.75;;
10410;SDS011;5251;52.112;8.606;2023-07-22T05:49:05;13.00;;;9.45;;
10410;SDS011;5251;52.112;8.606;2023-07-22T05:51:30;14.15;;;9.40;;
10410;SDS011;5251;52.112;8.606;2023-07-22T05:53:56;14.68;;;9.40;;
10410;SDS011;5251;52.112;8.606;2023-07-22T05:56:22;16.15;;;10.00;;
10410;SDS011;5251;52.112;8.606;2023-07-22T05:58:48;13.40;;;9.80;;
10410;SDS011;5251;52.112;8.606;2023-07-22T06:01:14;14.93;;;9.98;;
10410;SDS011;5251;52.112;8.606;2023-07-22T06:03:40;13.75;;;10.13;;
10410;SDS011;5251;52.112;8.606;2023-07-22T06:06:06;13.85;;;9.93;;
10410;SDS011;5251;52.112;8.606;2023-07-22T06:08:31;13.90;;;10.35;;
10410;SDS011;5251;52.112;8.606;2023-07-22T06:10:57;14.13;;;10.25;;
10410;SDS011;5251;52.112;8.606;2023-07-22T06:13:22;12.00;;;9.43;;
10410;SDS011;5251;52.112;8.606;2023-07-22T06:15:48;14.38;;;9.70;;
10410;SDS011;5251;52.112;8.606;2023-07-22T06:18:13;15.10;;;10.38;;
10410;SDS011;5251;52.112;8.606;2023-07-22T06:20:39;14.07;;;9.95;;
10410;SDS011;5251;52.112;8.606;2023-07-22T06:23:05;12.30;;;9.93;;
10410;SDS011;5251;52.112;8.606;2023-07-22T06:25:31;13.98;;;9.80;;
10410;SDS011;5251;52.112;8.606;2023-07-22T06:27:56;13.00;;;9.07;;
10410;SDS011;5251;52.112;8.606;2023-07-22T06:30:22;12.63;;;9.85;;
10410;SDS011;5251;52.112;8.606;2023-07-22T06:32:47;15.40;;;9.80;;
10410;SDS011;5251;52.112;8.606;2023-07-22T06:35:13;13.15;;;9.70;;
10410;SDS011;5251;52.112;8.606;2023-07-22T06:37:39;13.48;;;9.52;;
10410;SDS011;5251;52.112;8.606;2023-07-22T06:40:05;11.07;;;9.25;;
10410;SDS011;5251;52.112;8.606;2023-07-22T06:42:31;13.35;;;9.07;;
10410;SDS011;5251;52.112;8.606;2023-07-22T06:44:57;11.02;;;8.90;;
10410;SDS011;5251;52.112;8.606;2023-07-22T06:47:23;11.88;;;8.82;;
10410;SDS011;5251;52.112;8.606;2023-07-22T06:49:49;12.80;;;9.35;;
10410;SDS011;5251;52.112;8.606;2023-07-22T06:52:15;13.75;;;8.43;;
10410;SDS011;5251;52.112;8.606;2023-07-22T06:54:41;11.27;;;8.98;;
10410;SDS011;5251;52.112;8.606;2023-07-22T06:57:07;10.77;;;9.00;;
10410;SDS011;5251;52.112;8.606;2023-07-22T06:59:33;10.60;;;8.82;;
10410;SDS011;5251;52.112;8.606;2023-07-22T07:01:58;11.70;;;8.23;;
10410;SDS011;5251;52.112;8.606;2023-07-22T07:04:24;12.23;;;8.82;;
10410;SDS011;5251;52.112;8.606;2023-07-22T07:06:50;9.98;;;8.00;;
10410;SDS011;5251;52.112;8.606;2023-07-22T07:09:16;10.25;;;8.48;;
10410;SDS011;5251;52.112;8.606;2023-07-22T07:11:41;10.32;;;9.00;;
10410;SDS011;5251;52.112;8.606;2023-07-22T07:14:07;10.95;;;8.68;;
10410;SDS011;5251;52.112;8.606;2023-07-22T07:16:32;14.02;;;9.80;;
10410;SDS011;5251;52.112;8.606;2023-07-22T07:18:59;11.32;;;9.25;;
10410;SDS011;5251;52.112;8.606;2023-07-22T07:21:25;11.68;;;9.65;;
10410;SDS011;5251;52.112;8.606;2023-07-22T07:23:51;12.63;;;9.30;;
10410;SDS011;5251;52.112;8.606;2023-07-22T07:26:18;11.18;;;8.77;;
10410;SDS011;5251;52.112;8.606;2023-07-22T07:28:44;10.73;;;9.02;;
10410;SDS011;5251;52.112;8.606;2023-07-22T07:31:11;11.68;;;9.00;;
10410;SDS011;5251;52.112;8.606;2023-07-22T07:33:37;9.13;;;8.07;;
10410;SDS011;5251;52.112;8.606;2023-07-22T07:36:02;12.25;;;8.68;;
10410;SDS011;5251;52.112;8.606;2023-07-22T07:38:28;12.20;;;9.43;;
10410;SDS011;5251;52.112;8.606;2023-07-22T07:40:55;9.63;;;8.07;;
10410;SDS011;5251;52.112;8.606;2023-07-22T07:43:23;10.30;;;8.63;;
10410;SDS011;5251;52.112;8.606;2023-07-22T07:45:48;9.23;;;8.27;;
10410;SDS011;5251;52.112;8.606;2023-07-22T07:48:14;13.43;;;8.38;;
10410;SDS011;5251;52.112;8.606;2023-07-22T07:50:40;10.40;;;8.50;;
10410;SDS011;5251;52.112;8.606;2023-07-22T07:53:06;9.93;;;7.90;;
10410;SDS011;5251;52.112;8.606;2023-07-22T07:55:32;9.90;;;8.75;;
10410;SDS011;5251;52.112;8.606;2023-07-22T07:57:57;10.10;;;7.88;;
10410;SDS011;5251;52.112;8.606;2023-07-22T08:00:23;9.13;;;7.70;;
10410;SDS011;5251;52.112;8.606;2023-07-22T08:02:49;9.10;;;8.10;;
10410;SDS011;5251;52.112;8.606;2023-07-22T08:05:14;9.07;;;8.00;;
10410;SDS011;5251;52.112;8.606;2023-07-22T08:07:41;10.75;;;7.47;;
10410;SDS011;5251;52.112;8.606;2023-07-22T08:10:06;12.93;;;8.70;;
10410;SDS011;5251;52.112;8.606;2023-07-22T08:12:32;10.70;;;8.25;;
10410;SDS011;5251;52.112;8.606;2023-07-22T08:14:58;9.02;;;7.88;;
10410;SDS011;5251;52.112;8.606;2023-07-22T08:17:24;8.50;;;7.68;;
10410;SDS011;5251;52.112;8.606;2023-07-22T08:19:50;10.45;;;7.97;;
10410;SDS011;5251;52.112;8.606;2023-07-22T08:22:16;8.43;;;7.55;;
10410;SDS011;5251;52.112;8.606;2023-07-22T08:24:42;8.60;;;7.22;;
10410;SDS011;5251;52.112;8.606;2023-07-22T08:27:08;11.07;;;8.02;;
10410;SDS011;5251;52.112;8.606;2023-07-22T08:29:34;9.32;;;7.75;;
10410;SDS011;5251;52.112;8.606;2023-07-22T08:31:59;9.18;;;7.22;;
10410;SDS011;5251;52.112;8.606;2023-07-22T08:34:25;9.73;;;7.45;;
10410;SDS011;5251;52.112;8.606;2023-07-22T08:36:51;8.73;;;7.25;;
10410;SDS011;5251;52.112;8.606;2023-07-22T08:39:17;9.82;;;6.50;;
10410;SDS011;5251;52.112;8.606;2023-07-22T08:41:45;8.02;;;7.22;;
10410;SDS011;5251;52.112;8.606;2023-07-22T08:44:16;8.20;;;7.40;;
10410;SDS011;5251;52.112;8.606;2023-07-22T08:46:44;8.60;;;7.55;;
10410;SDS011;5251;52.112;8.606;2023-07-22T08:49:11;9.15;;;7.20;;
10410;SDS011;5251;52.112;8.606;2023-07-22T08:51:37;9.23;;;7.53;;
10410;SDS011;5251;52.112;8.606;2023-07-22T08:54:04;7.72;;;6.70;;
10410;SDS011;5251;52.112;8.606;2023-07-22T08:56:30;8.63;;;6.90;;
10410;SDS011;5251;52.112;8.606;2023-07-22T08:58:56;7.47;;;6.72;;
10410;SDS011;5251;52.112;8.606;2023-07-22T09:01:22;8.35;;;6.03;;
10410;SDS011;5251;52.112;8.606;2023-07-22T09:03:48;9.07;;;7.20;;
10410;SDS011;5251;52.112;8.606;2023-07-22T09:06:17;8.48;;;6.43;;
10410;SDS011;5251;52.112;8.606;2023-07-22T09:08:44;7.60;;;6.70;;
10410;SDS011;5251;52.112;8.606;2023-07-22T09:11:10;7.35;;;6.30;;
10410;SDS011;5251;52.112;8.606;2023-07-22T09:13:36;8.55;;;6.82;;
10410;SDS011;5251;52.112;8.606;2023-07-22T09:16:04;9.40;;;6.18;;
10410;SDS011;5251;52.112;8.606;2023-07-22T09:18:34;6.85;;;5.88;;
10410;SDS011;5251;52.112;8.606;2023-07-22T09:21:00;5.57;;;5.07;;
10410;SDS011;5251;52.112;8.606;2023-07-22T09:23:35;6.82;;;5.03;;
10410;SDS011;5251;52.112;8.606;2023-07-22T09:26:11;7.45;;;5.90;;
10410;SDS011;5251;52.112;8.606;2023-07-22T09:28:48;6.65;;;5.88;;
10410;SDS011;5251;52.112;8.606;2023-07-22T09:31:13;6.93;;;6.07;;
10410;SDS011;5251;52.112;8.606;2023-07-22T09:33:39;7.20;;;5.72;;
10410;SDS011;5251;52.112;8.606;2023-07-22T09:36:04;6.28;;;5.60;;
10410;SDS011;5251;52.112;8.606;2023-07-22T09:38:30;7.57;;;6.13;;
10410;SDS011;5251;52.112;8.606;2023-07-22T09:40:55;7.90;;;5.43;;
10410;SDS011;5251;52.112;8.606;2023-07-22T09:43:22;7.78;;;6.03;;
10410;SDS011;5251;52.112;8.606;2023-07-22T09:45:49;7.90;;;5.78;;
10410;SDS011;5251;52.112;8.606;2023-07-22T09:48:14;6.30;;;5.35;;
10410;SDS011;5251;52.112;8.606;2023-07-22T09:50:40;8.75;;;5.38;;
10410;SDS011;5251;52.112;8.606;2023-07-22T09:53:06;8.55;;;5.95;;
10410;SDS011;5251;52.112;8.606;2023-07-22T09:55:32;6.22;;;5.40;;
10410;SDS011;5251;52.112;8.606;2023-07-22T09:58:02;7.05;;;6.10;;
10410;SDS011;5251;52.112;8.606;2023-07-22T10:00:34;7.25;;;5.78;;
10410;SDS011;5251;52.112;8.606;2023-07-22T10:03:04;6.95;;;6.15;;
10410;SDS011;5251;52.112;8.606;2023-07-22T10:05:35;8.57;;;6.70;;
10410;SDS011;5251;52.112;8.606;2023-07-22T10:08:01;8.65;;;6.00;;
10410;SDS011;5251;52.112;8.606;2023-07-22T10:10:31;7.57;;;6.78;;
10410;SDS011;5251;52.112;8.606;2023-07-22T10:12:58;9.23;;;6.70;;
10410;SDS011;5251;52.112;8.606;2023-07-22T10:15:24;8.70;;;6.43;;
10410;SDS011;5251;52.112;8.606;2023-07-22T10:17:53;7.43;;;6.60;;
10410;SDS011;5251;52.112;8.606;2023-07-22T10:20:20;8.40;;;6.00;;
10410;SDS011;5251;52.112;8.606;2023-07-22T10:22:48;7.75;;;6.32;;
10410;SDS011;5251;52.112;8.606;2023-07-22T10:25:15;7.38;;;5.90;;
10410;SDS011;5251;52.112;8.606;2023-07-22T10:27:42;6.65;;;5.45;;
10410;SDS011;5251;52.112;8.606;2023-07-22T10:30:11;6.65;;;5.03;;
10410;SDS011;5251;52.112;8.606;2023-07-22T10:32:39;6.00;;;5.15;;
10410;SDS011;5251;52.112;8.606;2023-07-22T10:35:10;5.47;;;4.80;;
10410;SDS011;5251;52.112;8.606;2023-07-22T10:37:40;6.20;;;4.45;;
10410;SDS011;5251;52.112;8.606;2023-07-22T10:42:59;5.05;;;4.55;;
10410;SDS011;5251;52.112;8.606;2023-07-22T10:45:32;5.15;;;4.32;;
10410;SDS011;5251;52.112;8.606;2023-07-22T10:48:05;5.85;;;4.75;;
10410;SDS011;5251;52.112;8.606;2023-07-22T10:50:57;6.07;;;4.80;;
10410;SDS011;5251;52.112;8.606;2023-07-22T11:01:30;7.55;;;4.78;;
10410;SDS011;5251;52.112;8.606;2023-07-22T11:06:36;4.93;;;4.43;;
10410;SDS011;5251;52.112;8.606;2023-07-22T11:11:53;6.38;;;4.38;;
10410;SDS011;5251;52.112;8.606;2023-07-22T11:14:27;5.38;;;4.18;;
10410;SDS011;5251;52.112;8.606;2023-07-22T11:16:53;5.13;;;4.53;;
10410;SDS011;5251;52.112;8.606;2023-07-22T11:19:22;4.82;;;4.32;;
10410;SDS011;5251;52.112;8.606;2023-07-22T11:21:49;5.18;;;4.68;;
10410;SDS011;5251;52.112;8.606;2023-07-22T11:24:16;5.07;;;4.45;;
10410;SDS011;5251;52.112;8.606;2023-07-22T11:26:42;5.90;;;4.18;;
10410;SDS011;5251;52.112;8.606;2023-07-22T11:29:10;5.03;;;4.53;;
10410;SDS011;5251;52.112;8.606;2023-07-22T11:31:36;5.07;;;4.38;;
10410;SDS011;5251;52.112;8.606;2023-07-22T11:34:07;5.07;;;4.43;;
10410;SDS011;5251;52.112;8.606;2023-07-22T11:36:37;4.63;;;4.13;;
10410;SDS011;5251;52.112;8.606;2023-07-22T11:39:03;5.05;;;4.35;;
10410;SDS011;5251;52.112;8.606;2023-07-22T11:41:42;4.05;;;3.72;;
10410;SDS011;5251;52.112;8.606;2023-07-22T11:44:09;4.68;;;4.28;;
10410;SDS011;5251;52.112;8.606;2023-07-22T11:46:57;5.10;;;4.03;;
10410;SDS011;5251;52.112;8.606;2023-07-22T11:49:31;4.75;;;4.25;;
10410;SDS011;5251;52.112;8.606;2023-07-22T11:52:04;9.38;;;4.28;;
10410;SDS011;5251;52.112;8.606;2023-07-22T11:54:38;4.25;;;3.85;;
10410;SDS011;5251;52.112;8.606;2023-07-22T11:59:47;4.57;;;3.92;;
10410;SDS011;5251;52.112;8.606;2023-07-22T12:02:14;4.47;;;4.07;;
10410;SDS011;5251;52.112;8.606;2023-07-22T12:04:40;4.80;;;4.30;;
10410;SDS011;5251;52.112;8.606;2023-07-22T12:07:05;4.07;;;3.78;;
10410;SDS011;5251;52.112;8.606;2023-07-22T12:09:31;4.18;;;3.78;;
10410;SDS011;5251;52.112;8.606;2023-07-22T12:11:59;4.85;;;4.40;;
10410;SDS011;5251;52.112;8.606;2023-07-22T12:14:34;4.47;;;3.97;;
10410;SDS011;5251;52.112;8.606;2023-07-22T12:17:00;4.43;;;4.03;;
10410;SDS011;5251;52.112;8.606;2023-07-22T12:19:29;4.65;;;4.25;;
10410;SDS011;5251;52.112;8.606;2023-07-22T12:21:55;4.85;;;4.40;;
10410;SDS011;5251;52.112;8.606;2023-07-22T12:24:21;4.85;;;4.40;;
10410;SDS011;5251;52.112;8.606;2023-07-22T12:26:46;4.75;;;4.32;;
10410;SDS011;5251;52.112;8.606;2023-07-22T12:29:12;4.45;;;4.05;;
10410;SDS011;5251;52.112;8.606;2023-07-22T12:31:38;4.35;;;3.95;;
10410;SDS011;5251;52.112;8.606;2023-07-22T12:34:03;4.90;;;4.28;;
10410;SDS011;5251;52.112;8.606;2023-07-22T12:36:29;4.35;;;3.95;;
10410;SDS011;5251;52.112;8.606;2023-07-22T12:38:55;5.10;;;3.88;;
10410;SDS011;5251;52.112;8.606;2023-07-22T12:41:20;4.18;;;3.78;;
10410;SDS011;5251;52.112;8.606;2023-07-22T12:43:46;4.30;;;3.90;;
10410;SDS011;5251;52.112;8.606;2023-07-22T12:46:11;4.07;;;3.67;;
10410;SDS011;5251;52.112;8.606;2023-07-22T12:48:37;4.28;;;3.88;;
10410;SDS011;5251;52.112;8.606;2023-07-22T12:51:03;4.25;;;3.85;;
10410;SDS011;5251;52.112;8.606;2023-07-22T12:53:29;3.60;;;3.30;;
10410;SDS011;5251;52.112;8.606;2023-07-22T12:55:54;3.90;;;3.60;;
10410;SDS011;5251;52.112;8.606;2023-07-22T12:58:20;4.47;;;3.67;;
10410;SDS011;5251;52.112;8.606;2023-07-22T13:00:45;3.92;;;3.50;;
10410;SDS011;5251;52.112;8.606;2023-07-22T13:03:11;3.75;;;3.20;;
10410;SDS011;5251;52.112;8.606;2023-07-22T13:05:37;3.60;;;3.22;;
10410;SDS011;5251;52.112;8.606;2023-07-22T13:08:03;3.30;;;3.00;;
10410;SDS011;5251;52.112;8.606;2023-07-22T13:10:37;3.72;;;3.30;;
10410;SDS011;5251;52.112;8.606;2023-07-22T13:13:04;3.78;;;3.00;;
10410;SDS011;5251;52.112;8.606;2023-07-22T13:15:31;3.20;;;2.90;;
10410;SDS011;5251;52.112;8.606;2023-07-22T13:17:57;4.43;;;3.17;;
10410;SDS011;5251;52.112;8.606;2023-07-22T13:20:22;3.33;;;3.03;;
10410;SDS011;5251;52.112;8.606;2023-07-22T13:22:48;5.50;;;3.22;;
10410;SDS011;5251;52.112;8.606;2023-07-22T13:25:14;3.35;;;3.05;;
10410;SDS011;5251;52.112;8.606;2023-07-22T13:27:39;3.45;;;3.13;;
10410;SDS011;5251;52.112;8.606;2023-07-22T13:30:08;3.60;;;3.30;;
10410;SDS011;5251;52.112;8.606;2023-07-22T13:32:35;3.10;;;2.80;;
10410;SDS011;5251;52.112;8.606;2023-07-22T13:35:00;4.07;;;3.60;;
10410;SDS011;5251;52.112;8.606;2023-07-22T13:37:26;4.00;;;3.20;;
10410;SDS011;5251;52.112;8.606;2023-07-22T13:39:52;3.30;;;3.00;;
10410;SDS011;5251;52.112;8.606;2023-07-22T13:42:18;4.45;;;3.17;;
10410;SDS011;5251;52.112;8.606;2023-07-22T13:44:44;3.65;;;3.10;;
10410;SDS011;5251;52.112;8.606;2023-07-22T13:47:09;4.28;;;3.58;;
10410;SDS011;5251;52.112;8.606;2023-07-22T13:49:35;4.38;;;3.20;;
10410;SDS011;5251;52.112;8.606;2023-07-22T13:52:00;4.10;;;3.70;;
10410;SDS011;5251;52.112;8.606;2023-07-22T13:54:26;3.42;;;3.13;;
10410;SDS011;5251;52.112;8.606;2023-07-22T13:56:52;4.93;;;3.10;;
10410;SDS011;5251;52.112;8.606;2023-07-22T13:59:17;3.47;;;2.90;;
10410;SDS011;5251;52.112;8.606;2023-07-22T14:01:43;4.43;;;3.22;;
10410;SDS011;5251;52.112;8.606;2023-07-22T14:04:08;3.10;;;2.80;;
10410;SDS011;5251;52.112;8.606;2023-07-22T14:06:34;3.22;;;2.95;;
10410;SDS011;5251;52.112;8.606;2023-07-22T14:08:59;4.30;;;2.88;;
10410;SDS011;5251;52.112;8.606;2023-07-22T14:11:25;3.10;;;2.80;;
10410;SDS011;5251;52.112;8.606;2023-07-22T14:13:51;3.15;;;2.85;;
10410;SDS011;5251;52.112;8.606;2023-07-22T14:16:17;2.92;;;2.63;;
10410;SDS011;5251;52.112;8.606;2023-07-22T14:18:43;3.10;;;2.80;;
10410;SDS011;5251;52.112;8.606;2023-07-22T14:21:08;2.88;;;2.67;;
10410;SDS011;5251;52.112;8.606;2023-07-22T14:23:36;2.83;;;2.63;;
10410;SDS011;5251;52.112;8.606;2023-07-22T14:26:02;2.95;;;2.67;;
10410;SDS011;5251;52.112;8.606;2023-07-22T14:28:27;2.92;;;2.72;;
10410;SDS011;5251;52.112;8.606;2023-07-22T14:30:53;4.13;;;2.90;;
10410;SDS011;5251;52.112;8.606;2023-07-22T14:33:18;3.78;;;2.80;;
10410;SDS011;5251;52.112;8.606;2023-07-22T14:35:44;3.10;;;2.80;;
10410;SDS011;5251;52.112;8.606;2023-07-22T14:38:10;3.15;;;2.85;;
10410;SDS011;5251;52.112;8.606;2023-07-22T14:40:36;3.08;;;2.78;;
10410;SDS011;5251;52.112;8.606;2023-07-22T14:43:02;3.13;;;2.40;;
10410;SDS011;5251;52.112;8.606;2023-07-22T14:45:27;3.10;;;2.53;;
10410;SDS011;5251;52.112;8.606;2023-07-22T14:47:53;3.05;;;2.78;;
10410;SDS011;5251;52.112;8.606;2023-07-22T14:50:18;2.65;;;2.45;;
10410;SDS011;5251;52.112;8.606;2023-07-22T14:52:44;2.95;;;2.50;;
10410;SDS011;5251;52.112;8.606;2023-07-22T14:55:10;3.10;;;2.80;;
10410;SDS011;5251;52.112;8.606;2023-07-22T14:57:35;2.70;;;2.50;;
10410;SDS011;5251;52.112;8.606;2023-07-22T15:00:01;3.63;;;2.90;;
10410;SDS011;5251;52.112;8.606;2023-07-22T15:02:26;2.78;;;2.55;;
10410;SDS011;5251;52.112;8.606;2023-07-22T15:04:52;4.53;;;2.50;;
10410;SDS011;5251;52.112;8.606;2023-07-22T15:07:17;3.25;;;2.85;;
10410;SDS011;5251;52.112;8.606;2023-07-22T15:09:43;3.80;;;2.20;;